Élőkép

Információk

Albatrosz Repülő Egyesület
8000 Székesfehérvár,
Radványi utca 6.

Adószám:
19092908-2-07

Bankszámla szám:
Budapest Bank
10102952-01361819-00000001

Telefon: +36 30 9598-897

Telephey: Börgönd repülőtér

Börgöndi repülõtér

LHBP METAR/TAF

[source: ADDS]
METAR
TAF LHBP 271100Z 2712/2812 VRB03KT 6000 NSC TEMPO 2712/2717 3000 -SN BKN015 OVC030 BECMG 2718/2721 2000 FZBCFG BR BKN010 TEMPO 2723/2807 0600 FZFG BKN002 BECMG 2808/2811 5000 BR NSC TAF
TAF LHBP 271100Z 2712/2812 VRB03KT 6000 NSC TEMPO 2712/2717 3000 -SN BKN015 OVC030 BECMG 2718/2721 2000 FZBCFG BR BKN010 TEMPO 2723/2807 0600 FZFG BKN002 BECMG 2808/2811 5000 BR NSC =
SR / SS: 06:18 / 15:43 UTC (Börgönd 2015-01-27)
Hungarian Chinese (Simplified) Croatian Czech English Finnish French German Hebrew Italian Japanese Polish Portuguese Romanian Russian Serbian Slovak Slovenian Spanish

Belépés tagoknak